createdAt,value
2019-02-19T00:02:13.106Z,2.27
2019-02-19T00:04:39.483Z,2.30
2019-02-19T00:07:05.817Z,2.30
2019-02-19T00:09:32.226Z,2.10
2019-02-19T00:11:58.544Z,2.53
2019-02-19T00:14:24.873Z,2.20
2019-02-19T00:16:51.224Z,2.00
2019-02-19T00:19:17.553Z,2.23
2019-02-19T00:21:43.909Z,2.60
2019-02-19T00:24:10.236Z,2.07
2019-02-19T00:26:36.668Z,1.90
2019-02-19T00:29:05.571Z,2.20
2019-02-19T00:31:31.891Z,2.23
2019-02-19T00:33:58.350Z,2.20
2019-02-19T00:36:24.695Z,2.13
2019-02-19T00:38:51.025Z,2.17
2019-02-19T00:41:17.361Z,2.00
2019-02-19T00:43:43.689Z,1.87
2019-02-19T00:46:10.004Z,2.40
2019-02-19T00:48:36.434Z,1.90
2019-02-19T00:51:02.789Z,2.10
2019-02-19T00:53:29.154Z,2.13
2019-02-19T00:55:55.479Z,2.13
2019-02-19T00:58:21.819Z,1.80
2019-02-19T01:00:48.149Z,2.03
2019-02-19T01:03:14.469Z,1.80
2019-02-19T01:05:40.828Z,1.83
2019-02-19T01:08:07.342Z,2.07
2019-02-19T01:10:33.661Z,1.80
2019-02-19T01:13:00.001Z,2.43
2019-02-19T01:15:26.342Z,1.77
2019-02-19T01:17:52.670Z,1.90
2019-02-19T01:20:19.002Z,1.70
2019-02-19T01:22:45.348Z,2.07
2019-02-19T01:25:11.673Z,2.13
2019-02-19T01:27:38.063Z,2.10
2019-02-19T01:30:04.356Z,2.10
2019-02-19T01:32:30.767Z,2.30
2019-02-19T01:34:57.099Z,2.03
2019-02-19T01:37:23.552Z,2.00
2019-02-19T01:39:49.906Z,1.90
2019-02-19T01:42:16.318Z,1.80
2019-02-19T01:44:42.641Z,2.00
2019-02-19T01:47:08.976Z,1.77
2019-02-19T01:49:35.306Z,1.70
2019-02-19T01:52:01.638Z,1.73
2019-02-19T01:54:27.965Z,1.57
2019-02-19T01:56:54.295Z,1.73
2019-02-19T01:59:20.636Z,1.70
2019-02-19T02:01:47.016Z,1.70
2019-02-19T02:04:13.345Z,1.57
2019-02-19T02:06:39.718Z,1.90
2019-02-19T02:09:06.050Z,1.80
2019-02-19T02:11:32.378Z,1.73
2019-02-19T02:13:58.709Z,1.60
2019-02-19T02:16:25.045Z,1.63
2019-02-19T02:18:51.439Z,1.40
2019-02-19T02:21:17.803Z,1.40
2019-02-19T02:23:44.131Z,1.50
2019-02-19T02:26:10.568Z,1.70
2019-02-19T02:28:36.897Z,1.40
2019-02-19T02:31:03.235Z,1.57
2019-02-19T02:33:29.559Z,1.50
2019-02-19T02:35:55.899Z,1.60
2019-02-19T02:38:22.249Z,1.70
2019-02-19T02:40:48.619Z,1.40
2019-02-19T02:43:14.962Z,1.50
2019-02-19T02:45:41.294Z,1.63
2019-02-19T02:48:07.627Z,1.50
2019-02-19T02:50:33.968Z,1.40
2019-02-19T02:53:00.292Z,1.50
2019-02-19T02:55:26.617Z,1.37
2019-02-19T02:57:52.950Z,1.60
2019-02-19T03:00:19.353Z,1.60
2019-02-19T03:02:45.723Z,1.43
2019-02-19T03:05:12.140Z,1.50
2019-02-19T03:07:38.496Z,1.20
2019-02-19T03:10:04.898Z,1.40
2019-02-19T03:12:31.176Z,1.50
2019-02-19T03:14:57.573Z,1.33
2019-02-19T03:17:23.922Z,1.37
2019-02-19T03:19:50.275Z,1.60
2019-02-19T03:22:16.607Z,1.30
2019-02-19T03:24:42.948Z,1.57
2019-02-19T03:27:09.283Z,1.27
2019-02-19T03:29:35.644Z,1.33
2019-02-19T03:32:02.009Z,1.37
2019-02-19T03:34:28.334Z,1.67
2019-02-19T03:36:54.662Z,1.50
2019-02-19T03:39:21.000Z,1.60
2019-02-19T03:41:47.330Z,1.50
2019-02-19T03:44:13.668Z,1.50
2019-02-19T03:46:40.026Z,1.53
2019-02-19T03:49:06.356Z,1.57
2019-02-19T03:51:32.732Z,1.70
2019-02-19T03:53:59.051Z,1.80
2019-02-19T03:56:25.369Z,1.40
2019-02-19T03:58:51.693Z,1.67
2019-02-19T04:01:18.012Z,1.60
2019-02-19T04:03:44.370Z,1.70
2019-02-19T04:06:10.712Z,1.40
2019-02-19T04:08:37.042Z,1.57
2019-02-19T04:11:03.391Z,1.40
2019-02-19T04:13:29.796Z,1.40
2019-02-19T04:15:56.143Z,1.57
2019-02-19T04:18:22.480Z,1.60
2019-02-19T04:20:48.923Z,1.40
2019-02-19T04:23:15.251Z,1.50
2019-02-19T04:25:41.597Z,1.60
2019-02-19T04:28:08.023Z,1.60
2019-02-19T04:30:34.401Z,1.90
2019-02-19T04:33:00.751Z,1.63
2019-02-19T04:35:27.115Z,2.33
2019-02-19T04:37:53.461Z,1.60
2019-02-19T04:40:19.793Z,1.70
2019-02-19T04:42:46.154Z,1.80
2019-02-19T04:45:12.503Z,2.03
2019-02-19T04:47:38.828Z,1.77
2019-02-19T04:50:05.164Z,1.90
2019-02-19T04:52:31.590Z,1.73
2019-02-19T04:54:57.942Z,1.90
2019-02-19T04:57:24.275Z,2.07
2019-02-19T04:59:50.613Z,2.20
2019-02-19T05:02:16.954Z,1.87
2019-02-19T05:04:43.299Z,1.90
2019-02-19T05:07:09.648Z,2.10
2019-02-19T05:09:36.048Z,2.67
2019-02-19T05:12:02.370Z,2.00
2019-02-19T05:14:28.691Z,2.10
2019-02-19T05:16:55.031Z,1.90
2019-02-19T05:19:21.421Z,2.07
2019-02-19T05:21:47.696Z,2.20
2019-02-19T05:24:14.063Z,2.00
2019-02-19T05:26:40.446Z,1.90
2019-02-19T05:29:06.791Z,2.23
2019-02-19T05:31:33.234Z,2.30
2019-02-19T05:33:59.557Z,2.10
2019-02-19T05:36:25.937Z,2.30
2019-02-19T05:38:52.261Z,2.83
2019-02-19T05:41:18.584Z,3.03
2019-02-19T05:43:44.916Z,2.50
2019-02-19T05:46:11.259Z,3.57
2019-02-19T05:48:37.730Z,2.63
2019-02-19T05:51:04.071Z,2.80
2019-02-19T05:53:30.438Z,2.60
2019-02-19T05:55:56.735Z,2.30
2019-02-19T05:58:23.067Z,2.43
2019-02-19T06:00:49.456Z,3.07
2019-02-19T06:03:15.818Z,3.17
2019-02-19T06:05:42.109Z,3.00
2019-02-19T06:08:08.446Z,3.20
2019-02-19T06:10:34.824Z,1.97
2019-02-19T06:13:01.271Z,2.50
2019-02-19T06:15:27.533Z,2.63
2019-02-19T06:17:53.870Z,2.20
2019-02-19T06:20:20.273Z,2.13
2019-02-19T06:22:46.649Z,3.00
2019-02-19T06:25:13.024Z,2.80
2019-02-19T06:27:39.351Z,2.80
2019-02-19T06:30:05.754Z,2.93
2019-02-19T06:32:32.093Z,2.60
2019-02-19T06:34:58.471Z,2.83
2019-02-19T06:37:24.836Z,2.60
2019-02-19T06:39:51.224Z,2.53
2019-02-19T06:42:17.583Z,2.60
2019-02-19T06:44:43.938Z,2.20
2019-02-19T06:47:10.319Z,2.43
2019-02-19T06:49:36.687Z,3.27
2019-02-19T06:52:03.060Z,2.60
2019-02-19T06:54:29.392Z,2.93
2019-02-19T06:56:55.714Z,2.80
2019-02-19T06:59:22.085Z,2.50
2019-02-19T07:01:48.460Z,2.60
2019-02-19T07:04:14.817Z,3.23
2019-02-19T07:06:41.154Z,2.53
2019-02-19T07:09:07.562Z,2.77
2019-02-19T07:11:33.963Z,2.80
2019-02-19T07:14:00.298Z,2.70
2019-02-19T07:16:26.762Z,2.70
2019-02-19T07:18:53.433Z,3.10
2019-02-19T07:21:19.768Z,2.93
2019-02-19T07:23:46.138Z,3.00
2019-02-19T07:26:12.499Z,3.37
2019-02-19T07:28:38.850Z,3.30
2019-02-19T07:31:05.190Z,3.70
2019-02-19T07:33:31.579Z,3.17
2019-02-19T07:35:57.904Z,2.70
2019-02-19T07:38:24.338Z,3.20
2019-02-19T07:40:50.712Z,3.10
2019-02-19T07:43:17.065Z,3.27
2019-02-19T07:45:43.452Z,3.17
2019-02-19T07:48:10.295Z,3.67
2019-02-19T07:50:38.845Z,2.97
2019-02-19T07:53:05.173Z,3.30
2019-02-19T07:55:32.949Z,3.07
2019-02-19T07:57:57.930Z,3.20
2019-02-19T08:00:24.526Z,3.20
2019-02-19T08:02:50.856Z,3.27
2019-02-19T08:05:17.356Z,3.10
2019-02-19T08:07:43.710Z,2.80
2019-02-19T08:10:10.132Z,3.00
2019-02-19T08:12:36.479Z,2.73
2019-02-19T08:15:02.830Z,2.87
2019-02-19T08:17:33.403Z,3.20
2019-02-19T08:19:55.562Z,2.77
2019-02-19T08:22:21.912Z,2.73
2019-02-19T08:24:48.250Z,2.50
2019-02-19T08:27:14.734Z,3.20
2019-02-19T08:29:43.244Z,2.70
2019-02-19T08:32:09.668Z,3.50
2019-02-19T08:34:36.058Z,2.80
2019-02-19T08:37:02.435Z,2.50
2019-02-19T08:39:29.135Z,2.73
2019-02-19T08:41:55.476Z,2.90
2019-02-19T08:44:21.800Z,3.00
2019-02-19T08:46:48.178Z,2.30
2019-02-19T08:49:14.599Z,2.87
2019-02-19T08:51:41.016Z,2.93
2019-02-19T08:54:07.683Z,2.77
2019-02-19T08:56:34.030Z,2.53
2019-02-19T08:59:00.363Z,2.70
2019-02-19T09:01:26.807Z,2.23
2019-02-19T09:03:53.196Z,2.50
2019-02-19T09:06:19.627Z,2.60
2019-02-19T09:08:46.012Z,2.40
2019-02-19T09:11:12.440Z,2.27
2019-02-19T09:13:39.024Z,2.70
2019-02-19T09:16:05.444Z,2.60
2019-02-19T09:18:31.775Z,2.40
2019-02-19T09:20:58.203Z,2.37
2019-02-19T09:23:24.592Z,2.30
2019-02-19T09:25:51.250Z,2.30
2019-02-19T09:28:17.612Z,2.00
2019-02-19T09:30:43.972Z,2.20
2019-02-19T09:33:10.347Z,1.90
2019-02-19T09:35:36.807Z,2.20
2019-02-19T09:38:03.159Z,2.13
2019-02-19T09:40:29.671Z,2.53
2019-02-19T09:42:56.101Z,2.83
2019-02-19T09:45:22.459Z,2.17
2019-02-19T09:47:48.805Z,2.07
2019-02-19T09:50:15.202Z,1.90
2019-02-19T09:52:41.567Z,2.17
2019-02-19T09:55:09.593Z,2.30
2019-02-19T09:57:34.293Z,2.10
2019-02-19T10:00:00.709Z,2.10
2019-02-19T10:02:27.027Z,2.27
2019-02-19T10:04:53.366Z,2.50
2019-02-19T10:07:19.710Z,2.53
2019-02-19T10:09:46.042Z,3.13
2019-02-19T10:12:12.425Z,2.20
2019-02-19T10:14:38.783Z,2.87
2019-02-19T10:17:05.157Z,2.07
2019-02-19T10:19:31.519Z,2.47
2019-02-19T10:21:57.847Z,2.43
2019-02-19T10:24:24.211Z,2.40
2019-02-19T10:26:50.543Z,2.40
2019-02-19T10:29:16.889Z,2.60
2019-02-19T10:31:43.272Z,2.40
2019-02-19T10:34:09.610Z,2.00
2019-02-19T10:36:35.965Z,1.97
2019-02-19T10:39:02.299Z,2.00
2019-02-19T10:41:28.648Z,2.47
2019-02-19T10:43:54.977Z,2.23
2019-02-19T10:46:21.391Z,2.43
2019-02-19T10:48:47.826Z,2.00
2019-02-19T10:51:14.291Z,2.40
2019-02-19T10:53:40.666Z,3.50
2019-02-19T10:56:07.014Z,2.63
2019-02-19T10:58:33.453Z,2.70
2019-02-19T11:00:59.780Z,2.60
2019-02-19T11:03:26.198Z,2.50
2019-02-19T11:05:52.515Z,2.33
2019-02-19T11:08:18.894Z,2.33
2019-02-19T11:10:45.338Z,2.67
2019-02-19T11:13:11.753Z,2.47
2019-02-19T11:15:38.069Z,2.23
2019-02-19T11:18:04.440Z,1.90
2019-02-19T11:20:30.800Z,2.30
2019-02-19T11:22:57.120Z,2.23
2019-02-19T11:25:23.622Z,2.10
2019-02-19T11:27:49.987Z,1.87
2019-02-19T11:30:16.381Z,1.90
2019-02-19T11:32:42.705Z,2.10
2019-02-19T11:35:09.081Z,1.70
2019-02-19T11:37:37.303Z,1.47
2019-02-19T11:40:01.776Z,1.77
2019-02-19T11:42:28.130Z,1.90
2019-02-19T11:44:54.550Z,1.90
2019-02-19T11:47:26.465Z,2.20
2019-02-19T11:49:47.234Z,1.70
2019-02-19T11:52:13.666Z,1.77
2019-02-19T11:54:39.998Z,1.93
2019-02-19T11:57:06.388Z,1.80
2019-02-19T11:59:32.742Z,1.90
2019-02-19T12:01:59.090Z,1.80
2019-02-19T12:04:26.024Z,1.73
2019-02-19T12:06:52.865Z,2.00
2019-02-19T12:09:19.291Z,2.00
2019-02-19T12:11:45.621Z,1.40
2019-02-19T12:14:11.978Z,1.90
2019-02-19T12:16:38.324Z,1.80
2019-02-19T12:19:04.720Z,1.57
2019-02-19T12:21:31.082Z,1.73
2019-02-19T12:23:57.516Z,1.77
2019-02-19T12:26:23.877Z,1.83
2019-02-19T12:28:50.401Z,1.83
2019-02-19T12:31:16.795Z,2.10
2019-02-19T12:33:43.243Z,1.90
2019-02-19T12:36:09.573Z,1.90
2019-02-19T12:38:35.973Z,1.57
2019-02-19T12:41:02.314Z,1.93
2019-02-19T12:43:28.758Z,1.60
2019-02-19T12:45:55.090Z,1.63
2019-02-19T12:48:21.420Z,2.10
2019-02-19T12:50:47.818Z,1.70
2019-02-19T12:53:14.142Z,1.60
2019-02-19T12:55:40.628Z,1.80
2019-02-19T12:58:06.965Z,1.80
2019-02-19T13:00:33.326Z,1.50
2019-02-19T13:02:59.724Z,2.00
2019-02-19T13:05:26.063Z,1.70
2019-02-19T13:07:52.429Z,2.00
2019-02-19T13:10:18.760Z,1.50
2019-02-19T13:12:45.101Z,1.83
2019-02-19T13:15:11.437Z,1.77
2019-02-19T13:17:37.841Z,1.87
2019-02-19T13:20:05.404Z,1.47
2019-02-19T13:22:30.650Z,1.60
2019-02-19T13:24:58.912Z,2.10
2019-02-19T13:27:23.300Z,1.57
2019-02-19T13:29:49.635Z,1.80
2019-02-19T13:32:15.988Z,1.60
2019-02-19T13:34:42.353Z,1.77
2019-02-19T13:37:08.737Z,1.80
2019-02-19T13:39:35.074Z,2.07
2019-02-19T13:42:01.485Z,1.70
2019-02-19T13:44:27.829Z,1.83
2019-02-19T13:46:54.163Z,1.50
2019-02-19T13:49:20.499Z,1.57
2019-02-19T13:51:46.882Z,1.50
2019-02-19T13:54:13.257Z,1.50
2019-02-19T13:56:39.707Z,1.40
2019-02-19T13:59:06.054Z,1.97
2019-02-19T14:01:33.099Z,1.47
2019-02-19T14:03:59.451Z,1.60
2019-02-19T14:06:25.787Z,1.60
2019-02-19T14:08:52.119Z,2.00
2019-02-19T14:11:18.590Z,1.40
2019-02-19T14:13:44.992Z,1.47
2019-02-19T14:16:11.344Z,1.93
2019-02-19T14:18:37.815Z,1.70
2019-02-19T14:21:04.179Z,1.60
2019-02-19T14:23:30.679Z,1.47
2019-02-19T14:25:57.045Z,1.33
2019-02-19T14:28:23.419Z,1.60
2019-02-19T14:30:49.863Z,1.70
2019-02-19T14:33:16.284Z,1.33
2019-02-19T14:35:42.631Z,1.70
2019-02-19T14:38:09.011Z,1.40
2019-02-19T14:40:35.308Z,1.63
2019-02-19T14:43:01.721Z,1.80
2019-02-19T14:45:28.118Z,1.93
2019-02-19T14:47:54.465Z,1.60
2019-02-19T14:50:20.828Z,1.67
2019-02-19T14:52:47.293Z,1.60
2019-02-19T14:55:13.585Z,1.50
2019-02-19T14:57:39.920Z,1.37
2019-02-19T15:00:06.248Z,1.53
2019-02-19T15:02:32.582Z,1.60
2019-02-19T15:04:58.924Z,1.60
2019-02-19T15:07:25.276Z,1.50
2019-02-19T15:09:51.662Z,1.70
2019-02-19T15:12:20.159Z,1.70
2019-02-19T15:14:44.751Z,1.50
2019-02-19T15:17:11.076Z,1.33
2019-02-19T15:19:39.307Z,1.97
2019-02-19T15:22:03.782Z,1.60
2019-02-19T15:24:30.153Z,2.27
2019-02-19T15:26:56.503Z,1.80
2019-02-19T15:29:22.827Z,1.50
2019-02-19T15:31:49.161Z,1.40
2019-02-19T15:34:15.551Z,2.00
2019-02-19T15:36:43.827Z,1.80
2019-02-19T15:39:10.170Z,1.63
2019-02-19T15:41:36.503Z,1.43
2019-02-19T15:44:02.834Z,1.70
2019-02-19T15:46:29.211Z,1.97
2019-02-19T15:48:58.191Z,1.40
2019-02-19T15:51:21.913Z,3.77
2019-02-19T15:53:48.261Z,1.47
2019-02-19T15:56:17.489Z,1.77
2019-02-19T15:58:42.895Z,2.10
2019-02-19T16:01:07.281Z,2.00
2019-02-19T16:03:33.682Z,2.53
2019-02-19T16:06:00.014Z,2.20
2019-02-19T16:08:26.401Z,2.30
2019-02-19T16:10:52.725Z,2.80
2019-02-19T16:13:19.101Z,2.27
2019-02-19T16:15:45.485Z,2.53
2019-02-19T16:18:11.883Z,2.40
2019-02-19T16:20:38.245Z,2.30
2019-02-19T16:23:04.574Z,2.10
2019-02-19T16:25:30.983Z,2.93
2019-02-19T16:27:57.373Z,2.20
2019-02-19T16:30:23.695Z,2.53
2019-02-19T16:32:50.034Z,2.20
2019-02-19T16:35:16.370Z,2.20
2019-02-19T16:37:42.760Z,2.10
2019-02-19T16:40:09.123Z,1.77
2019-02-19T16:42:37.383Z,2.00
2019-02-19T16:45:03.713Z,2.00
2019-02-19T16:47:30.059Z,1.77
2019-02-19T16:49:56.394Z,1.90
2019-02-19T16:52:22.783Z,2.00
2019-02-19T16:54:49.107Z,1.80
2019-02-19T16:57:15.442Z,2.00
2019-02-19T16:59:41.768Z,1.90
2019-02-19T17:02:08.171Z,1.97
2019-02-19T17:04:34.532Z,2.27
2019-02-19T17:07:00.879Z,2.50
2019-02-19T17:09:27.252Z,2.70
2019-02-19T17:11:53.539Z,2.10
2019-02-19T17:14:19.874Z,2.13
2019-02-19T17:16:46.261Z,3.17
2019-02-19T17:19:12.613Z,2.10
2019-02-19T17:21:38.962Z,2.20
2019-02-19T17:24:05.283Z,2.07
2019-02-19T17:26:31.634Z,2.27
2019-02-19T17:28:58.012Z,2.20
2019-02-19T17:31:24.344Z,2.00
2019-02-19T17:33:50.772Z,1.83
2019-02-19T17:36:17.103Z,2.03
2019-02-19T17:38:43.458Z,1.87
2019-02-19T17:41:09.794Z,2.10
2019-02-19T17:43:36.166Z,2.10
2019-02-19T17:46:02.495Z,2.20
2019-02-19T17:48:28.827Z,2.20
2019-02-19T17:50:55.168Z,2.10
2019-02-19T17:53:21.513Z,2.20
2019-02-19T17:55:47.845Z,1.90
2019-02-19T17:58:14.226Z,1.97
2019-02-19T18:00:40.564Z,2.00
2019-02-19T18:03:06.900Z,2.13
2019-02-19T18:05:33.234Z,2.23
2019-02-19T18:07:59.556Z,1.97
2019-02-19T18:10:25.912Z,2.30
2019-02-19T18:12:52.276Z,2.07
2019-02-19T18:15:18.599Z,2.23
2019-02-19T18:17:44.926Z,2.10
2019-02-19T18:20:11.260Z,2.03
2019-02-19T18:22:37.627Z,2.10
2019-02-19T18:25:03.924Z,1.93
2019-02-19T18:27:30.257Z,2.30
2019-02-19T18:29:56.578Z,2.20
2019-02-19T18:32:22.973Z,2.10
2019-02-19T18:34:49.302Z,2.10
2019-02-19T18:37:15.630Z,2.00
2019-02-19T18:39:41.954Z,2.20
2019-02-19T18:42:08.291Z,2.10
2019-02-19T18:44:34.631Z,1.93
2019-02-19T18:47:00.973Z,2.00
2019-02-19T18:49:27.307Z,2.30
2019-02-19T18:51:56.165Z,2.17
2019-02-19T18:54:22.532Z,2.10
2019-02-19T18:56:48.907Z,2.27
2019-02-19T18:59:15.235Z,2.40
2019-02-19T19:01:41.568Z,2.10
2019-02-19T19:04:07.929Z,2.00
2019-02-19T19:06:34.310Z,1.93
2019-02-19T19:09:00.641Z,2.33
2019-02-19T19:11:26.974Z,2.40
2019-02-19T19:13:53.335Z,2.07
2019-02-19T19:16:19.684Z,2.20
2019-02-19T19:18:46.005Z,2.10
2019-02-19T19:21:12.335Z,2.00
2019-02-19T19:23:38.725Z,2.23
2019-02-19T19:26:05.057Z,2.30
2019-02-19T19:28:31.408Z,2.03
2019-02-19T19:30:57.808Z,2.17
2019-02-19T19:33:24.161Z,2.13
2019-02-19T19:35:50.529Z,1.90
2019-02-19T19:38:16.861Z,2.40
2019-02-19T19:40:43.183Z,2.20
2019-02-19T19:43:09.552Z,1.90
2019-02-19T19:45:35.889Z,2.40
2019-02-19T19:48:02.213Z,2.20
2019-02-19T19:50:28.576Z,2.03
2019-02-19T19:52:54.939Z,2.10
2019-02-19T19:55:21.234Z,2.10
2019-02-19T19:57:47.565Z,2.30
2019-02-19T20:00:13.896Z,2.00
2019-02-19T20:02:40.321Z,2.23
2019-02-19T20:05:06.621Z,2.07
2019-02-19T20:07:33.076Z,1.80
2019-02-19T20:09:59.433Z,1.90
2019-02-19T20:12:25.887Z,1.90
2019-02-19T20:14:52.210Z,1.90
2019-02-19T20:17:18.534Z,2.20
2019-02-19T20:19:44.927Z,1.90
2019-02-19T20:22:11.201Z,2.00
2019-02-19T20:24:37.536Z,2.10
2019-02-19T20:27:03.869Z,2.23
2019-02-19T20:29:30.205Z,2.20
2019-02-19T20:31:56.540Z,2.00
2019-02-19T20:34:22.884Z,2.47
2019-02-19T20:36:49.270Z,2.10
2019-02-19T20:39:15.535Z,2.20
2019-02-19T20:41:41.867Z,1.67
2019-02-19T20:44:08.204Z,2.13
2019-02-19T20:46:34.521Z,2.20
2019-02-19T20:49:00.856Z,2.27
2019-02-19T20:51:35.913Z,1.80
2019-02-19T20:53:53.520Z,2.40
2019-02-19T20:56:19.844Z,1.90
2019-02-19T20:58:46.169Z,2.00
2019-02-19T21:01:12.522Z,2.10
2019-02-19T21:03:38.861Z,2.30
2019-02-19T21:06:05.315Z,1.93
2019-02-19T21:08:31.643Z,2.10
2019-02-19T21:10:58.000Z,2.00
2019-02-19T21:13:24.378Z,2.10
2019-02-19T21:15:50.734Z,1.90
2019-02-19T21:18:17.053Z,1.87
2019-02-19T21:20:45.343Z,2.07
2019-02-19T21:23:09.721Z,2.00
2019-02-19T21:25:36.063Z,1.77
2019-02-19T21:28:02.393Z,1.83
2019-02-19T21:30:28.728Z,2.23
2019-02-19T21:32:55.131Z,2.30
2019-02-19T21:35:21.444Z,2.17
2019-02-19T21:37:47.771Z,2.17
2019-02-19T21:40:14.104Z,1.87
2019-02-19T21:42:40.450Z,1.93
2019-02-19T21:45:07.959Z,2.00
2019-02-19T21:47:33.110Z,2.10
2019-02-19T21:49:59.428Z,2.00
2019-02-19T21:52:25.770Z,2.07
2019-02-19T21:54:52.118Z,2.00
2019-02-19T21:57:18.514Z,1.90
2019-02-19T21:59:44.900Z,1.90
2019-02-19T22:02:16.455Z,2.30
2019-02-19T22:04:37.560Z,2.00
2019-02-19T22:07:03.945Z,1.90
2019-02-19T22:09:30.297Z,2.20
2019-02-19T22:11:56.631Z,1.77
2019-02-19T22:14:22.957Z,2.00
2019-02-19T22:16:49.310Z,2.10
2019-02-19T22:19:15.639Z,1.97
2019-02-19T22:21:41.975Z,2.03
2019-02-19T22:24:08.312Z,2.10
2019-02-19T22:26:34.700Z,1.90
2019-02-19T22:29:01.030Z,2.00
2019-02-19T22:31:27.431Z,1.93
2019-02-19T22:33:53.768Z,2.17
2019-02-19T22:36:20.096Z,1.90
2019-02-19T22:38:46.441Z,2.00
2019-02-19T22:41:12.803Z,1.87
2019-02-19T22:43:39.135Z,1.80
2019-02-19T22:46:05.461Z,2.00
2019-02-19T22:48:31.790Z,1.80
2019-02-19T22:50:58.164Z,1.80
2019-02-19T22:53:24.434Z,1.63
2019-02-19T22:55:51.720Z,2.00
2019-02-19T22:58:17.120Z,2.10
2019-02-19T23:00:43.455Z,1.97
2019-02-19T23:03:09.796Z,2.30
2019-02-19T23:05:36.187Z,2.00
2019-02-19T23:08:02.521Z,2.00
2019-02-19T23:10:28.860Z,1.80
2019-02-19T23:12:55.213Z,1.53
2019-02-19T23:15:21.539Z,1.93
2019-02-19T23:17:47.908Z,1.83
2019-02-19T23:20:14.262Z,1.90
2019-02-19T23:22:40.633Z,2.00
2019-02-19T23:25:07.031Z,1.90
2019-02-19T23:27:33.355Z,1.80
2019-02-19T23:29:59.759Z,1.87
2019-02-19T23:32:26.129Z,2.10
2019-02-19T23:34:52.480Z,2.10
2019-02-19T23:37:18.872Z,2.20
2019-02-19T23:39:45.205Z,1.70
2019-02-19T23:42:11.565Z,1.73
2019-02-19T23:44:37.946Z,1.97
2019-02-19T23:47:04.278Z,2.03
2019-02-19T23:49:30.608Z,1.90
2019-02-19T23:51:56.951Z,1.50
2019-02-19T23:54:23.270Z,1.70
2019-02-19T23:56:49.619Z,1.80
2019-02-19T23:59:16.007Z,2.03
